Terminal Aerodrome Forecast
Issued by NWS

Home | Current Version | Previous Version | Text Only | Print | Product List | Glossary On
Versions: 1 2 3 4 5 6 7 8 9 10 11 12 13 14
000
FTUS45 KRIW 172300
TAFLND
TAF
KLND 172326Z 1800/1824 26008KT P6SM VCSH SCT050 BKN110
     FM180230 VRB06KT P6SM SCT110=

USA.gov is the U.S. government's official web portal to all federal, state and local government web resources and services.